Time;durP1;ratioP1;P1;durP2;ratioP2;P2;SDS_P1;SDS_P2;PMS_P1;PMS_P2;Temp;Humidity;BMP_temperature;BMP_pressure;BME280_temperature;BME280_humidity;BME280_pressure;Samples;Min_cycle;Max_cycle;Signal;HPM_P1;HPM_P2
2022/11/16 05:22:37;;;;;;;2.03;1.45;;;;;;;10.12;100.00;98895.97;5109366;27;20756;-69
2022/11/16 05:25:05;;;;;;;3.55;2.42;;;;;;;10.17;100.00;98893.53;5108430;28;20073;-69
2022/11/16 05:27:31;;;;;;;5.18;3.22;;;;;;;10.22;100.00;98890.22;5107864;28;20031;-68
2022/11/16 05:29:57;;;;;;;4.30;2.58;;;;;;;10.22;100.00;98892.91;5108022;28;20046;-68
2022/11/16 05:32:24;;;;;;;5.78;3.47;;;;;;;10.22;100.00;98890.22;5107778;28;20039;-68
2022/11/16 05:34:52;;;;;;;12.70;3.80;;;;;;;10.27;100.00;98903.78;5108176;28;20134;-68
2022/11/16 05:37:19;;;;;;;6.18;3.55;;;;;;;10.28;100.00;98900.09;5107688;28;20485;-68
2022/11/16 05:39:46;;;;;;;5.68;3.95;;;;;;;10.34;100.00;98901.94;5107696;28;20385;-68
2022/11/16 05:42:12;;;;;;;5.95;3.63;;;;;;;10.37;100.00;98906.03;5107288;28;20093;-68
2022/11/16 05:44:38;;;;;;;6.57;3.85;;;;;;;10.41;100.00;98910.75;5108816;28;20107;-68
2022/11/16 05:47:04;;;;;;;7.40;3.72;;;;;;;10.47;100.00;98909.94;5108736;28;20054;-68
2022/11/16 05:49:30;;;;;;;7.85;3.72;;;;;;;10.48;100.00;98911.56;5107754;28;20051;-68
2022/11/16 05:51:56;;;;;;;10.00;3.05;;;;;;;10.52;100.00;98920.78;5107090;28;20519;-68
2022/11/16 05:54:24;;;;;;;4.13;3.33;;;;;;;10.51;100.00;98916.50;5107533;28;20044;-68
2022/11/16 05:56:50;;;;;;;;;;;;;;;10.53;100.00;98921.59;5107908;28;20062;-68
2022/11/16 05:59:20;;;;;;;5.30;3.20;;;;;;;10.55;100.00;98916.88;5107321;28;19919;-68
2022/11/16 06:01:49;;;;;;;4.50;3.25;;;;;;;10.54;100.00;98921.41;5107337;28;20063;-68
2022/11/16 06:04:15;;;;;;;5.10;3.05;;;;;;;10.55;100.00;98925.69;5107276;28;20031;-68
2022/11/16 06:06:41;;;;;;;3.67;2.50;;;;;;;10.57;100.00;98925.50;5107313;28;20063;-68
2022/11/16 06:09:08;;;;;;;5.25;2.90;;;;;;;10.60;100.00;98917.91;5107397;28;20488;-68
2022/11/16 06:11:37;;;;;;;7.95;3.58;;;;;;;10.58;100.00;98932.47;5106782;28;20049;-68
2022/11/16 06:14:03;;;;;;;;;;;;;;;10.58;100.00;98927.97;5107620;28;20070;-72
2022/11/16 06:16:29;;;;;;;4.07;2.50;;;;;;;10.57;100.00;98922.84;5108353;28;19977;-70
2022/11/16 06:18:54;;;;;;;7.10;3.10;;;;;;;10.57;100.00;98925.50;5107146;28;20404;-69
2022/11/16 06:21:20;;;;;;;3.65;2.30;;;;;;;10.55;100.00;98923.03;5106468;28;20503;-69
2022/11/16 06:23:47;;;;;;;5.38;2.85;;;;;;;10.49;100.00;98934.50;5107070;28;20123;-69
2022/11/16 06:26:12;;;;;;;5.07;2.72;;;;;;;10.53;100.00;98940.25;5106742;28;20028;-69
2022/11/16 06:28:39;;;;;;;3.72;2.42;;;;;;;10.51;100.00;98945.78;5106869;28;20058;-69
2022/11/16 06:31:05;;;;;;;5.07;2.85;;;;;;;10.48;100.00;98935.53;5106392;28;20042;-68
2022/11/16 06:33:34;;;;;;;5.35;2.92;;;;;;;10.48;100.00;98940.84;5095621;28;20051;-68
2022/11/16 06:36:04;;;;;;;5.45;3.00;;;;;;;10.44;100.00;98944.16;5093124;28;20051;-69
2022/11/16 06:38:31;;;;;;;4.55;2.42;;;;;;;10.41;100.00;98953.34;5093100;28;20561;-69
2022/11/16 06:40:57;;;;;;;4.35;2.70;;;;;;;10.33;100.00;98951.69;5092677;28;20063;-69
2022/11/16 06:43:26;;;;;;;5.20;3.22;;;;;;;10.35;100.00;98954.16;5092978;28;20032;-69
2022/11/16 06:45:54;;;;;;;6.75;2.80;;;;;;;10.35;100.00;98959.47;5092878;28;20036;-69
2022/11/16 06:48:20;;;;;;;3.03;2.50;;;;;;;10.33;100.00;98950.88;5092889;28;20485;-70
2022/11/16 06:50:48;;;;;;;4.33;2.27;;;;;;;10.36;100.00;98966.44;5092647;28;20075;-70
2022/11/16 06:53:16;;;;;;;3.58;2.20;;;;;;;10.35;100.00;98953.34;5092841;28;20039;-71
2022/11/16 06:55:43;;;;;;;3.35;2.30;;;;;;;10.34;100.00;98957.84;5092730;28;20038;-69
2022/11/16 06:58:09;;;;;;;3.97;2.47;;;;;;;10.32;100.00;98955.38;5092811;28;20035;-69
2022/11/16 07:00:34;;;;;;;3.10;2.10;;;;;;;10.32;100.00;98959.91;5092423;28;20059;-69
2022/11/16 07:03:02;;;;;;;3.15;2.00;;;;;;;10.31;100.00;98952.94;5092630;28;20028;-57
2022/11/16 07:05:29;;;;;;;2.38;1.92;;;;;;;10.34;100.00;98955.19;5092459;28;20032;-59
2022/11/16 07:07:55;;;;;;;5.60;2.03;;;;;;;10.31;100.00;98953.75;5092553;28;20040;-61
2022/11/16 07:10:22;;;;;;;2.38;1.48;;;;;;;10.33;100.00;98964.19;5092064;28;20127;-61
2022/11/16 07:12:47;;;;;;;2.17;1.58;;;;;;;10.32;100.00;98967.88;5092632;28;20031;-57
2022/11/16 07:15:14;;;;;;;1.85;1.30;;;;;;;10.35;100.00;98970.13;5094398;28;20058;-61
2022/11/16 07:17:41;;;;;;;;;;;;;;;10.35;100.00;98975.44;5076467;28;20036;-62
2022/11/16 07:20:07;;;;;;;1.52;1.30;;;;;;;10.37;100.00;98978.75;5093516;28;19923;-62
2022/11/16 07:22:33;;;;;;;2.97;1.30;;;;;;;10.38;100.00;98977.72;5092006;28;20057;-63
2022/11/16 07:24:58;;;;;;;4.80;1.10;;;;;;;10.41;100.00;98979.97;5092240;28;20074;-73
2022/11/16 07:27:24;;;;;;;2.20;1.45;;;;;;;10.43;100.00;98985.91;5092363;28;20036;-72
2022/11/16 07:29:51;;;;;;;1.92;1.40;;;;;;;10.45;100.00;98986.53;5092133;28;20047;-73
2022/11/16 07:32:29;;;;;;;2.50;1.70;;;;;;;10.47;100.00;98992.47;5076549;28;20059;-72
2022/11/16 07:35:07;;;;;;;1.73;1.30;;;;;;;10.48;100.00;98993.28;5092025;28;20135;-73
2022/11/16 07:37:34;;;;;;;1.48;1.15;;;;;;;10.53;100.00;98994.31;5092052;28;20129;-72
2022/11/16 07:40:00;;;;;;;3.15;1.02;;;;;;;10.56;100.00;98995.75;5091842;28;20059;-73
2022/11/16 07:42:27;;;;;;;2.25;1.27;;;;;;;10.59;100.00;98996.16;5091689;28;20043;-72
2022/11/16 07:45:06;;;;;;;;;;;;;;;10.68;100.00;99010.09;5076182;28;20036;-73
2022/11/16 07:47:36;;;;;;;1.23;0.90;;;;;;;10.66;100.00;99000.69;5093160;28;19943;-72
2022/11/16 07:50:05;;;;;;;1.25;1.05;;;;;;;10.72;100.00;99016.66;5091665;28;20036;-73
2022/11/16 07:52:32;;;;;;;1.85;0.80;;;;;;;10.75;100.00;99015.44;5091444;28;20114;-73
2022/11/16 07:55:07;;;;;;;1.52;1.05;;;;;;;10.76;100.00;99020.56;5091822;28;20055;-73
2022/11/16 07:57:33;;;;;;;1.48;1.05;;;;;;;10.76;100.00;99014.44;5091446;28;20162;-73
2022/11/16 08:00:04;;;;;;;0.82;0.82;;;;;;;10.74;100.00;99014.59;5091454;28;20092;-73
2022/11/16 08:02:38;;;;;;;1.00;0.85;;;;;;;10.78;100.00;99004.38;5092947;28;20035;-74
2022/11/16 08:05:06;;;;;;;0.88;0.75;;;;;;;10.84;100.00;99012.38;5091591;28;20032;-74
2022/11/16 08:07:34;;;;;;;1.75;1.10;;;;;;;10.82;100.00;98998.44;5091377;28;20089;-75
2022/11/16 08:09:59;;;;;;;0.95;0.80;;;;;;;10.87;100.00;99006.63;5091524;28;20412;-74
2022/11/16 08:12:25;;;;;;;1.73;0.90;;;;;;;10.88;100.00;99010.91;5091119;28;20044;-74
2022/11/16 08:14:52;;;;;;;1.85;1.00;;;;;;;10.91;100.00;99015.03;5091385;28;20040;-77
2022/11/16 08:17:18;;;;;;;1.80;1.13;;;;;;;10.94;100.00;99009.28;5091224;28;20036;-73
2022/11/16 08:19:43;;;;;;;0.80;0.80;;;;;;;10.98;100.00;99013.19;5091247;28;20138;-71
2022/11/16 08:22:12;;;;;;;1.80;1.15;;;;;;;11.04;100.00;99014.22;5074423;28;20032;-74
2022/11/16 08:24:39;;;;;;;2.20;1.40;;;;;;;11.07;100.00;99016.44;5074603;28;20036;-73
2022/11/16 08:27:05;;;;;;;2.17;1.42;;;;;;;11.09;100.00;99015.25;5091046;28;20332;-73
2022/11/16 08:29:31;;;;;;;1.08;0.98;;;;;;;11.17;100.00;99016.06;5091087;28;20031;-75
2022/11/16 08:31:57;;;;;;;1.73;0.95;;;;;;;11.23;100.00;99016.03;5090806;28;20028;-73
2022/11/16 08:34:22;;;;;;;1.73;1.08;;;;;;;11.35;100.00;99024.25;5091123;28;20086;-73
2022/11/16 08:36:51;;;;;;;1.58;1.08;;;;;;;11.46;100.00;99014.75;5091044;28;20123;-73
2022/11/16 08:39:22;;;;;;;1.33;1.02;;;;;;;11.57;100.00;99027.47;5091010;28;20446;-73
2022/11/16 08:41:49;;;;;;;1.38;1.10;;;;;;;11.57;100.00;99030.94;5091785;28;20115;-73
2022/11/16 08:44:14;;;;;;;1.20;1.00;;;;;;;11.63;100.00;99032.78;5092096;28;20512;-73
2022/11/16 08:46:43;;;;;;;2.63;1.55;;;;;;;11.56;100.00;99026.66;5074224;28;20451;-72
2022/11/16 08:49:20;;;;;;;;;;;;;;;11.60;100.00;99030.50;5091202;28;20036;-73
2022/11/16 08:51:46;;;;;;;2.17;1.05;;;;;;;11.67;100.00;99025.16;5090525;28;19923;-72
2022/11/16 08:54:12;;;;;;;1.50;1.17;;;;;;;11.71;100.00;99028.25;5090632;28;20040;-73
2022/11/16 08:56:40;;;;;;;1.38;1.10;;;;;;;11.72;100.00;99008.53;5090451;28;20043;-73
2022/11/16 08:59:07;;;;;;;1.83;1.35;;;;;;;11.83;100.00;99027.41;5074258;28;20044;-74
2022/11/16 09:01:33;;;;;;;2.50;1.00;;;;;;;11.95;100.00;99022.25;5090595;28;20032;-74
2022/11/16 09:03:58;;;;;;;1.95;1.08;;;;;;;12.03;100.00;99027.34;5092072;28;20596;-73
2022/11/16 09:06:26;;;;;;;2.55;1.15;;;;;;;12.09;100.00;99023.00;5092166;28;20031;-74
2022/11/16 09:08:51;;;;;;;1.73;1.20;;;;;;;12.20;100.00;99023.16;5091982;28;20043;-73
2022/11/16 09:11:21;;;;;;;2.42;1.10;;;;;;;12.32;100.00;99030.47;5091494;28;20058;-73
2022/11/16 09:13:47;;;;;;;0.75;0.70;;;;;;;12.46;100.00;99026.72;5090407;28;20428;-73
2022/11/16 09:16:16;;;;;;;3.28;0.90;;;;;;;12.67;100.00;99031.72;5091777;28;20035;-74
2022/11/16 09:18:43;;;;;;;1.08;0.73;;;;;;;12.78;100.00;99024.88;5090370;28;20062;-74
2022/11/16 09:21:08;;;;;;;1.10;0.80;;;;;;;12.97;100.00;99029.22;5091268;28;20020;-75
2022/11/16 09:23:34;;;;;;;1.13;0.75;;;;;;;13.07;100.00;99034.06;5090513;28;20416;-75
2022/11/16 09:26:01;;;;;;;1.08;0.80;;;;;;;13.17;100.00;99023.72;5091700;28;20123;-76
2022/11/16 09:28:27;;;;;;;0.80;0.68;;;;;;;13.24;100.00;99031.72;5091663;28;20040;-71
2022/11/16 09:30:52;;;;;;;0.82;0.63;;;;;;;13.27;100.00;99032.06;5091343;28;20101;-73
2022/11/16 09:33:17;;;;;;;1.23;0.70;;;;;;;13.23;100.00;99038.88;5091701;28;20075;-73
2022/11/16 09:35:43;;;;;;;1.08;0.60;;;;;;;13.24;100.00;99037.88;5090129;28;20098;-74
2022/11/16 09:38:09;;;;;;;0.82;0.57;;;;;;;13.24;100.00;99040.56;5091563;28;20064;-73
2022/11/16 09:40:38;;;;;;;3.20;0.85;;;;;;;13.26;100.00;99038.47;5089966;28;20043;-74
2022/11/16 09:43:34;;;;;;;2.03;0.75;;;;;;;13.15;100.00;99036.47;5090385;28;20616;-74
2022/11/16 09:46:23;;;;;;;1.17;0.95;;;;;;;13.15;100.00;99049.03;5091279;28;20035;-74
2022/11/16 09:48:49;;;;;;;0.52;0.50;;;;;;;13.08;100.00;99041.06;5073424;28;20125;-74
2022/11/16 09:51:18;;;;;;;1.02;0.60;;;;;;;13.15;100.00;99044.50;5091018;28;20032;-74
2022/11/16 09:53:47;;;;;;;1.27;0.73;;;;;;;12.98;100.00;99046.91;5089985;28;20039;-74
2022/11/16 09:56:20;;;;;;;0.47;0.40;;;;;;;13.13;100.00;99053.78;5089986;28;20111;-74
2022/11/16 09:58:57;;;;;;;0.90;0.68;;;;;;;13.10;100.00;99043.50;5091197;28;20217;-74
2022/11/16 10:01:31;;;;;;;0.50;0.50;;;;;;;13.14;100.00;99048.19;5091031;28;20085;-75
2022/11/16 10:04:05;;;;;;;1.40;0.70;;;;;;;13.16;100.00;99048.78;5089882;28;20032;-74
2022/11/16 10:06:40;;;;;;;1.02;0.90;;;;;;;13.12;100.00;99052.16;5091126;28;20115;-74
2022/11/16 10:09:09;;;;;;;0.60;0.60;;;;;;;13.01;100.00;99045.63;5094463;28;20028;-74
2022/11/16 10:11:59;;;;;;;3.97;1.85;;;;;;;13.05;100.00;99054.88;5093250;28;20505;-73
2022/11/16 10:15:03;;;;;;;3.40;0.90;;;;;;;13.13;100.00;99038.56;5095029;28;20036;-73
2022/11/16 10:17:47;;;;;;;2.30;0.88;;;;;;;14.11;95.35;99037.75;5094695;28;20034;-74
2022/11/16 10:20:15;;;;;;;0.93;0.52;;;;;;;14.92;89.04;99036.41;5092993;28;20047;-74
2022/11/16 10:22:59;;;;;;;5.13;0.70;;;;;;;15.67;84.27;99033.91;5094700;28;20024;-75
2022/11/16 10:25:38;;;;;;;0.65;0.30;;;;;;;16.53;76.94;99031.31;5093287;28;20477;-74
2022/11/16 10:28:26;;;;;;;0.95;0.50;;;;;;;17.12;76.63;99025.63;5094705;28;20512;-75
2022/11/16 10:31:10;;;;;;;3.17;0.80;;;;;;;17.25;73.94;99023.41;5094445;28;20043;-74
2022/11/16 10:33:37;;;;;;;0.82;0.40;;;;;;;16.69;74.66;99014.41;5094580;28;20036;-72
2022/11/16 10:36:12;;;;;;;0.38;0.32;;;;;;;16.38;74.08;99018.44;5094529;28;20028;-74
2022/11/16 10:38:39;;;;;;;0.55;0.17;;;;;;;16.09;75.86;99020.28;5093472;28;20043;-74
2022/11/16 10:41:21;;;;;;;0.85;0.55;;;;;;;15.82;77.84;99009.25;5094092;28;20032;-74
2022/11/16 10:43:47;;;;;;;1.08;0.75;;;;;;;15.54;80.43;99014.53;5094353;28;20313;-72
2022/11/16 10:46:20;;;;;;;1.80;0.50;;;;;;;15.26;81.21;99013.41;5093007;28;20123;-76
2022/11/16 10:48:52;;;;;;;1.15;0.80;;;;;;;15.00;82.89;99000.44;5092872;28;20055;-74
2022/11/16 10:51:17;;;;;;;3.65;0.70;;;;;;;14.83;84.78;99002.97;5092529;28;20040;-74
2022/11/16 10:53:43;;;;;;;1.27;0.50;;;;;;;14.53;86.83;98995.78;5094111;28;20503;-73
2022/11/16 10:56:26;;;;;;;0.40;0.38;;;;;;;14.66;87.70;98998.25;5097405;28;20032;-74
2022/11/16 10:58:53;;;;;;;0.95;0.68;;;;;;;15.59;84.57;98993.19;5094640;28;20074;-74
2022/11/16 11:01:35;;;;;;;1.05;0.47;;;;;;;16.71;79.23;98990.81;5093864;28;20024;-74
2022/11/16 11:04:14;;;;;;;0.30;0.30;;;;;;;17.58;71.94;98992.94;5092684;28;20044;-74
2022/11/16 11:06:40;;;;;;;0.90;0.63;;;;;;;18.48;66.99;98985.38;5092563;28;20028;-75
2022/11/16 11:09:27;;;;;;;1.25;0.50;;;;;;;19.16;68.76;98986.50;5093926;28;20090;-75
2022/11/16 11:15:10;;;;;;;2.22;0.52;;;;;;;18.02;62.90;98986.78;5078062;28;20046;-74
2022/11/16 11:17:38;;;;;;;0.30;0.30;;;;;;;17.11;66.16;98979.06;5092524;28;20039;-74
2022/11/16 11:20:16;;;;;;;1.17;0.63;;;;;;;16.65;66.09;98983.69;5093294;28;20032;-74
2022/11/16 11:22:48;;;;;;;0.95;0.52;;;;;;;16.62;67.38;98984.16;5093829;28;20036;-74
2022/11/16 11:25:34;;;;;;;0.85;0.57;;;;;;;17.08;65.78;98980.41;5093332;28;20158;-75
2022/11/16 11:28:25;;;;;;;1.70;0.63;;;;;;;16.85;65.51;98977.88;5093511;28;20122;-74
2022/11/16 11:30:53;;;;;;;0.93;0.70;;;;;;;16.73;67.08;98971.75;5077884;28;20036;-75
2022/11/16 11:33:22;;;;;;;1.55;0.75;;;;;;;16.53;68.38;98983.75;5093408;28;20104;-74
2022/11/16 11:35:57;;;;;;;0.85;0.50;;;;;;;16.40;70.57;98973.31;5092574;28;20055;-74
2022/11/16 11:38:24;;;;;;;0.93;0.40;;;;;;;16.09;70.53;98982.66;5092098;28;20040;-74
2022/11/16 11:41:03;;;;;;;2.35;0.95;;;;;;;16.27;71.75;98987.03;5091592;28;20035;-74
2022/11/16 11:43:32;;;;;;;1.92;0.95;;;;;;;16.76;70.46;98977.47;5093481;28;20039;-75
2022/11/16 11:46:23;;;;;;;0.95;0.50;;;;;;;16.98;68.65;98964.09;5091808;28;20036;-74
2022/11/16 11:48:57;;;;;;;4.13;1.00;;;;;;;16.95;67.41;98967.28;5093052;28;20397;-74
2022/11/16 11:51:39;;;;;;;1.58;0.60;;;;;;;17.41;67.14;98924.88;5092778;28;20072;-74
2022/11/16 11:54:06;;;;;;;2.53;0.77;;;;;;;17.95;63.07;98968.09;5091538;28;20075;-75
2022/11/16 11:56:32;;;;;;;1.75;0.60;;;;;;;18.10;61.95;98964.75;5091484;28;20051;-74
2022/11/16 11:58:59;;;;;;;3.53;1.10;;;;;;;18.08;62.44;98965.03;5091582;28;20044;-75
2022/11/16 12:01:42;;;;;;;0.95;0.65;;;;;;;17.74;61.86;98960.84;5093046;28;20036;-75
2022/11/16 12:04:45;;;;;;;1.58;0.40;;;;;;;17.22;64.16;98953.16;5092787;28;20107;-75
2022/11/16 12:07:32;;;;;;;1.33;0.70;;;;;;;17.70;66.59;98944.34;5092595;28;20031;-75
2022/11/16 12:10:17;;;;;;;;;;;;;;;17.51;65.49;98943.84;5092845;28;20028;-75
2022/11/16 12:12:49;;;;;;;0.73;0.55;;;;;;;16.94;66.82;98944.09;5092591;28;19924;-74
2022/11/16 12:15:39;;;;;;;1.05;0.68;;;;;;;16.77;67.27;98929.88;5092610;28;20131;-75
2022/11/16 12:18:17;;;;;;;1.13;0.82;;;;;;;16.54;67.01;98930.81;5092559;28;20511;-74
2022/11/16 12:20:42;;;;;;;4.10;0.60;;;;;;;16.27;67.14;98925.25;5092123;28;20382;-76
2022/11/16 12:23:37;;;;;;;0.32;0.32;;;;;;;16.43;64.78;98923.63;5091174;28;20052;-76
2022/11/16 12:26:24;;;;;;;3.53;0.60;;;;;;;16.57;61.34;98924.16;5092479;28;20032;-74
2022/11/16 12:29:15;;;;;;;1.35;0.65;;;;;;;16.84;59.71;98919.75;5091094;28;20063;-74
2022/11/16 12:32:11;;;;;;;1.42;0.30;;;;;;;16.72;59.12;98917.16;5091282;28;20028;-74
2022/11/16 12:34:51;;;;;;;2.85;1.02;;;;;;;16.88;60.16;98918.19;5090911;28;20043;-76
2022/11/16 12:37:48;;;;;;;0.93;0.60;;;;;;;17.13;59.46;98919.63;5091030;28;20536;-74
2022/11/16 12:40:27;;;;;;;1.33;0.60;;;;;;;17.02;60.21;98921.38;5090717;28;20074;-74
2022/11/16 12:43:07;;;;;;;2.10;0.75;;;;;;;17.05;60.03;98910.94;5092224;28;20044;-75
2022/11/16 12:45:51;;;;;;;1.08;0.55;;;;;;;17.23;62.64;98900.94;5092971;28;20046;-76
2022/11/16 12:48:43;;;;;;;3.03;0.60;;;;;;;16.57;58.88;98902.66;5090695;28;20449;-74
2022/11/16 12:51:11;;;;;;;3.03;0.80;;;;;;;16.17;60.74;98896.34;5091602;28;20492;-74
2022/11/16 12:53:56;;;;;;;1.85;0.70;;;;;;;15.87;64.11;98893.09;5090561;28;20493;-75
2022/11/16 12:56:33;;;;;;;1.50;0.50;;;;;;;16.01;61.93;98899.81;5090918;28;20387;-74
2022/11/16 12:59:32;;;;;;;2.03;0.45;;;;;;;16.12;61.22;98892.75;5092254;28;20448;-74
2022/11/16 13:02:04;;;;;;;1.38;0.60;;;;;;;15.95;62.43;98874.72;5091389;28;20035;-73
2022/11/16 13:04:36;;;;;;;2.78;0.80;;;;;;;16.01;61.52;98889.88;5091936;28;20032;-72
2022/11/16 13:07:08;;;;;;;1.50;0.43;;;;;;;16.01;60.98;98886.38;5091928;28;20047;-71
2022/11/16 13:09:47;;;;;;;1.05;0.50;;;;;;;15.95;64.21;98884.66;5092086;28;20340;-71
2022/11/16 13:12:17;;;;;;;0.40;0.32;;;;;;;15.96;62.18;98880.91;5091563;28;20036;-71
2022/11/16 13:14:46;;;;;;;1.05;0.57;;;;;;;15.82;64.17;98879.56;5091575;28;20044;-72
2022/11/16 13:17:29;;;;;;;1.27;0.50;;;;;;;15.81;65.29;98877.94;5091593;28;20040;-72
2022/11/16 13:20:19;;;;;;;1.05;0.60;;;;;;;15.83;63.99;98881.19;5090349;28;20028;-72
2022/11/16 13:22:54;;;;;;;0.63;0.45;;;;;;;15.71;64.46;98890.13;5091344;28;20116;-72
2022/11/16 13:25:29;;;;;;;1.98;0.43;;;;;;;15.77;62.54;98874.09;5091786;28;20531;-73
2022/11/16 13:28:27;;;;;;;3.75;0.90;;;;;;;15.71;63.22;98868.66;5090414;28;20576;-72
2022/11/16 13:31:10;;;;;;;2.55;0.70;;;;;;;15.56;63.37;98870.19;5091101;28;20043;-72
2022/11/16 13:33:48;;;;;;;2.28;0.65;;;;;;;15.53;62.31;98876.84;5091655;28;20539;-72
2022/11/16 13:36:38;;;;;;;2.83;0.73;;;;;;;15.56;61.12;98879.06;5090300;28;20481;-71
2022/11/16 13:39:05;;;;;;;0.63;0.43;;;;;;;15.52;62.88;98871.72;5091421;28;20028;-71
2022/11/16 13:41:35;;;;;;;1.30;0.50;;;;;;;15.43;62.65;98866.72;5091116;28;20477;-72
2022/11/16 13:44:03;;;;;;;2.83;0.82;;;;;;;15.48;61.02;98864.16;5094706;28;20024;-71
2022/11/16 13:46:38;;;;;;;1.13;0.70;;;;;;;15.41;59.80;98857.28;5095489;28;20064;-72
2022/11/16 13:49:04;;;;;;;1.65;0.60;;;;;;;15.44;59.70;98856.81;5094542;28;20116;-72
2022/11/16 13:51:29;;;;;;;0.73;0.50;;;;;;;15.41;60.13;98859.97;5095062;28;20052;-71
2022/11/16 13:53:55;;;;;;;2.50;0.60;;;;;;;15.44;60.12;98854.13;5095379;28;20032;-71
2022/11/16 13:56:21;;;;;;;1.48;0.65;;;;;;;15.37;60.38;98850.75;5095460;28;20043;-72
2022/11/16 13:58:50;;;;;;;0.45;0.32;;;;;;;15.33;60.41;98838.91;5095447;28;20040;-72
2022/11/16 14:01:16;;;;;;;3.53;1.23;;;;;;;15.37;60.16;98846.22;5095324;28;20039;-72
2022/11/16 14:03:50;;;;;;;5.20;0.70;;;;;;;15.32;60.77;98838.09;5095298;28;20400;-71
2022/11/16 14:06:18;;;;;;;3.03;0.57;;;;;;;15.35;59.70;98834.91;5095137;28;20059;-72
2022/11/16 14:08:55;;;;;;;0.22;0.22;;;;;;;15.32;60.92;98838.09;5095199;28;20038;-72
2022/11/16 14:11:37;;;;;;;1.83;0.70;;;;;;;15.34;60.56;98833.28;5093461;28;20028;-73
2022/11/16 14:14:50;;;;;;;1.38;0.77;;;;;;;15.29;62.48;98832.38;5094899;28;20300;-71
2022/11/16 14:17:52;;;;;;;3.50;1.00;;;;;;;15.42;61.99;98821.34;5093485;28;20085;-72
2022/11/16 14:20:36;;;;;;;3.42;0.93;;;;;;;15.44;59.90;98820.06;5094504;28;20059;-72
2022/11/16 14:23:21;;;;;;;4.05;1.85;;;;;;;15.43;60.81;98826.47;5093590;28;20054;-73
2022/11/16 14:25:56;;;;;;;1.65;0.50;;;;;;;15.41;60.43;98831.28;5094345;28;20109;-74
2022/11/16 14:28:41;;;;;;;5.18;0.75;;;;;;;15.37;60.83;98824.75;5093524;28;20044;-72
2022/11/16 14:31:23;;;;;;;3.38;0.60;;;;;;;15.23;60.46;98818.03;5094340;28;20040;-72
2022/11/16 14:33:52;;;;;;;2.78;1.33;;;;;;;15.18;60.58;98821.41;5095311;28;20032;-75
2022/11/16 14:36:35;;;;;;;1.88;0.93;;;;;;;15.05;61.15;98816.31;5094543;28;20036;-71
2022/11/16 14:39:21;;;;;;;1.95;0.85;;;;;;;14.95;61.47;98823.34;5094340;28;20118;-71
2022/11/16 14:41:47;;;;;;;5.57;0.85;;;;;;;14.72;61.28;98822.31;5094173;28;20032;-72
2022/11/16 14:44:17;;;;;;;1.73;0.80;;;;;;;14.69;62.70;98821.97;5094432;28;20040;-72
2022/11/16 14:46:43;;;;;;;2.10;0.98;;;;;;;14.59;63.47;98826.03;5094294;28;20419;-73
2022/11/16 14:49:15;;;;;;;3.13;0.88;;;;;;;14.39;63.74;98830.91;5092963;28;20135;-71
2022/11/16 14:51:47;;;;;;;2.40;0.50;;;;;;;14.31;64.03;98840.09;5092530;28;20438;-71
2022/11/16 14:54:28;;;;;;;2.15;1.02;;;;;;;14.21;65.39;98837.16;5092397;28;20032;-72
2022/11/16 14:56:58;;;;;;;2.13;1.10;;;;;;;14.15;66.30;98830.09;5094116;28;20443;-72
2022/11/16 14:59:24;;;;;;;3.03;1.20;;;;;;;14.11;66.89;98820.88;5094180;28;20035;-72
2022/11/16 15:01:51;;;;;;;3.55;1.00;;;;;;;14.05;67.83;98819.13;5093770;28;20027;-73
2022/11/16 15:04:17;;;;;;;1.83;0.85;;;;;;;14.03;67.75;98819.34;5094254;28;20043;-72
2022/11/16 15:06:57;;;;;;;2.88;1.30;;;;;;;13.92;68.50;98827.34;5092718;28;20043;-72
2022/11/16 15:09:27;;;;;;;4.90;1.15;;;;;;;13.90;69.60;98827.59;5093952;28;20388;-72
2022/11/16 15:14:45;;;;;;;5.60;0.80;;;;;;;13.87;69.95;98806.63;5092816;28;20085;-72
2022/11/16 15:17:17;;;;;;;4.32;0.80;;;;;;;13.77;68.36;98796.47;5092377;28;20036;-72
2022/11/16 15:19:51;;;;;;;3.05;0.80;;;;;;;13.67;73.64;98798.88;5093585;28;20027;-72
2022/11/16 15:22:17;;;;;;;2.33;0.93;;;;;;;13.69;72.71;98795.97;5092126;28;20393;-72
2022/11/16 15:24:43;;;;;;;0.80;0.50;;;;;;;13.65;73.88;98800.16;5093558;28;20035;-72
2022/11/16 15:27:29;;;;;;;3.45;0.82;;;;;;;13.40;77.36;98800.31;5093439;28;20501;-73
2022/11/16 15:29:54;;;;;;;2.30;0.85;;;;;;;13.22;78.04;98785.91;5093383;28;20388;-73
2022/11/16 15:32:20;;;;;;;1.35;0.80;;;;;;;13.12;82.13;98801.66;5091884;28;20024;-74
2022/11/16 15:34:51;;;;;;;2.05;0.68;;;;;;;12.98;82.99;98805.53;5093447;28;20036;-72
2022/11/16 15:37:26;;;;;;;2.08;0.88;;;;;;;12.88;83.35;98791.88;5093282;28;20123;-72
2022/11/16 15:39:53;;;;;;;3.42;1.08;;;;;;;12.80;86.13;98795.66;5093323;28;20149;-76
2022/11/16 15:42:19;;;;;;;6.75;1.88;;;;;;;12.71;85.21;98781.78;5091744;28;20477;-72
2022/11/16 15:44:45;;;;;;;4.67;2.67;;;;;;;12.70;85.63;98776.63;5091726;28;20082;-72
2022/11/16 15:47:13;;;;;;;2.80;1.50;;;;;;;12.57;86.61;98776.78;5091725;28;20040;-72
2022/11/16 15:49:40;;;;;;;2.47;0.77;;;;;;;12.50;88.11;98771.50;5093096;28;20051;-72
2022/11/16 15:52:06;;;;;;;1.30;0.60;;;;;;;12.43;88.19;98770.75;5092670;28;20085;-72
2022/11/16 15:55:02;;;;;;;0.60;0.60;;;;;;;12.33;89.78;98765.94;5092930;28;20443;-72
2022/11/16 15:57:20;;;;;;;1.77;1.20;;;;;;;12.34;86.91;98766.75;5092921;28;20036;-71
2022/11/16 15:59:49;;;;;;;4.88;3.13;;;;;;;12.31;85.87;98768.00;5091767;28;20040;-72
2022/11/16 16:02:20;;;;;;;2.88;1.95;;;;;;;12.19;86.14;98767.91;5092519;28;20389;-73
2022/11/16 16:04:46;;;;;;;4.20;1.63;;;;;;;12.26;85.78;98777.69;5092276;28;20062;-72
2022/11/16 16:07:35;;;;;;;3.55;1.90;;;;;;;12.26;85.47;98772.34;5092227;28;20453;-71
2022/11/16 16:10:19;;;;;;;3.35;2.35;;;;;;;12.20;86.00;98772.22;5092565;28;20051;-72
2022/11/16 16:13:00;;;;;;;3.38;1.90;;;;;;;12.21;86.95;98767.69;5091309;28;20043;-71
2022/11/16 16:15:28;;;;;;;4.63;1.80;;;;;;;12.30;86.83;98771.69;5092440;28;20119;-72
2022/11/16 16:17:55;;;;;;;3.85;1.83;;;;;;;12.28;86.84;98767.63;5092452;28;20199;-72
2022/11/16 16:20:24;;;;;;;2.35;1.55;;;;;;;12.16;89.14;98765.66;5090971;28;20520;-73
2022/11/16 16:22:50;;;;;;;5.40;2.30;;;;;;;12.08;89.50;98765.97;5092634;28;20038;-73
2022/11/16 16:25:27;;;;;;;5.10;1.92;;;;;;;11.99;90.18;98755.75;5092274;28;20032;-72
2022/11/16 16:27:53;;;;;;;5.10;2.47;;;;;;;12.02;89.51;98763.34;5092386;28;20564;-73
2022/11/16 16:30:18;;;;;;;6.38;2.53;;;;;;;12.01;87.34;98754.53;5091865;28;20136;-70
2022/11/16 16:32:48;;;;;;;13.23;4.78;;;;;;;11.99;90.16;98753.09;5090918;28;20068;-72
2022/11/16 16:35:19;;;;;;;18.60;6.55;;;;;;;12.03;88.43;98740.97;5092085;28;20378;-73
2022/11/16 16:37:48;;;;;;;9.68;2.75;;;;;;;11.97;87.52;98747.16;5092206;28;20040;-72
2022/11/16 16:40:18;;;;;;;10.10;3.10;;;;;;;11.96;87.11;98749.03;5090634;28;20048;-72
2022/11/16 16:42:46;;;;;;;5.05;1.23;;;;;;;12.00;87.56;98746.72;5092052;28;20505;-69
2022/11/16 16:45:19;;;;;;;18.33;8.30;;;;;;;12.05;87.48;98754.88;5092293;28;20485;-68
2022/11/16 16:47:44;;;;;;;12.20;5.28;;;;;;;12.00;87.08;98749.38;5092052;28;20040;-68
2022/11/16 16:50:10;;;;;;;1.85;1.45;;;;;;;11.97;85.28;98744.50;5091875;28;20438;-68
2022/11/16 16:52:35;;;;;;;1.50;0.90;;;;;;;11.93;82.70;98750.28;5091786;28;20468;-68
2022/11/16 16:55:00;;;;;;;6.45;1.80;;;;;;;11.95;85.50;98748.22;5091891;28;20032;-68
2022/11/16 16:57:26;;;;;;;3.00;1.95;;;;;;;11.95;86.59;98755.41;5090510;28;20081;-68
2022/11/16 16:59:51;;;;;;;6.20;3.08;;;;;;;11.87;88.10;98732.47;5091877;28;20115;-68
2022/11/16 17:02:17;;;;;;;4.70;2.47;;;;;;;11.87;92.70;98740.47;5090353;28;20485;-68
2022/11/16 17:04:42;;;;;;;3.30;1.83;;;;;;;11.80;93.13;98736.19;5092034;28;20075;-68
2022/11/16 17:07:08;;;;;;;1.52;0.90;;;;;;;11.78;87.66;98735.59;5091809;28;20047;-68
2022/11/16 17:09:34;;;;;;;5.55;0.82;;;;;;;11.76;84.26;98732.34;5091890;28;20028;-68
2022/11/16 17:11:59;;;;;;;2.30;1.38;;;;;;;11.76;83.41;98729.66;5090172;28;20485;-68
2022/11/16 17:14:24;;;;;;;2.15;1.05;;;;;;;11.74;82.82;98732.56;5091730;28;20135;-68
2022/11/16 17:16:50;;;;;;;2.42;0.95;;;;;;;11.78;83.55;98731.06;5090195;28;20040;-68
2022/11/16 17:19:16;;;;;;;1.67;0.88;;;;;;;11.78;82.90;98732.91;5091668;28;20035;-67
2022/11/16 17:21:41;;;;;;;2.20;0.80;;;;;;;11.77;83.08;98734.78;5090073;28;20093;-65